createdAt,value
2019-06-07T00:02:10.660Z,4.65
2019-06-07T00:04:39.078Z,4.55
2019-06-07T00:07:09.948Z,4.87
2019-06-07T00:09:37.498Z,5.00
2019-06-07T00:12:08.926Z,4.67
2019-06-07T00:14:35.762Z,4.87
2019-06-07T00:17:04.072Z,4.17
2019-06-07T00:19:32.359Z,4.28
2019-06-07T00:22:17.673Z,4.17
2019-06-07T00:24:30.667Z,4.10
2019-06-07T00:26:59.353Z,4.20
2019-06-07T00:29:27.764Z,4.37
2019-06-07T00:31:56.000Z,4.00
2019-06-07T00:34:25.107Z,4.00
2019-06-07T00:36:53.595Z,3.80
2019-06-07T00:39:25.363Z,4.47
2019-06-07T00:41:51.828Z,4.30
2019-06-07T00:44:23.057Z,4.20
2019-06-07T00:46:50.100Z,4.72
2019-06-07T00:49:32.336Z,5.22
2019-06-07T00:51:51.622Z,5.00
2019-06-07T00:54:20.292Z,4.97
2019-06-07T00:56:48.362Z,5.08
2019-06-07T00:59:19.152Z,5.65
2019-06-07T01:01:46.613Z,4.83
2019-06-07T01:04:17.760Z,5.35
2019-06-07T01:06:44.871Z,5.35
2019-06-07T01:09:13.129Z,5.00
2019-06-07T01:11:41.476Z,5.30
2019-06-07T01:14:09.862Z,5.45
2019-06-07T01:16:56.550Z,5.28
2019-06-07T01:19:08.104Z,5.92
2019-06-07T01:21:36.438Z,5.80
2019-06-07T01:24:12.018Z,6.60
2019-06-07T01:26:34.737Z,6.40
2019-06-07T01:29:02.987Z,7.15
2019-06-07T01:31:31.947Z,6.30
2019-06-07T01:34:00.460Z,6.35
2019-06-07T01:36:30.826Z,6.15
2019-06-07T01:39:00.409Z,6.33
2019-06-07T01:41:30.716Z,6.05
2019-06-07T01:43:58.645Z,6.20
2019-06-07T01:46:26.957Z,6.65
2019-06-07T01:48:55.631Z,5.72
2019-06-07T01:51:24.424Z,5.78
2019-06-07T01:54:41.293Z,5.70
2019-06-07T01:56:26.570Z,5.90
2019-06-07T01:58:53.391Z,5.53
2019-06-07T02:01:23.319Z,6.05
2019-06-07T02:03:51.626Z,5.67
2019-06-07T02:06:20.987Z,5.40
2019-06-07T02:08:50.625Z,5.35
2019-06-07T02:11:20.951Z,5.45
2019-06-07T02:13:48.890Z,5.42
2019-06-07T02:16:17.156Z,5.47
2019-06-07T02:19:01.154Z,5.37
2019-06-07T02:21:15.416Z,5.22
2019-06-07T02:23:43.764Z,5.42
2019-06-07T02:26:12.047Z,4.92
2019-06-07T02:28:45.625Z,5.70
2019-06-07T02:31:10.381Z,5.47
2019-06-07T02:33:40.321Z,5.50
2019-06-07T02:36:08.622Z,5.35
2019-06-07T02:38:37.797Z,5.12
2019-06-07T02:41:06.834Z,5.53
2019-06-07T02:43:37.063Z,5.12
2019-06-07T02:46:25.318Z,5.03
2019-06-07T02:48:40.132Z,5.03
2019-06-07T02:51:06.771Z,5.03
2019-06-07T02:53:40.111Z,4.70
2019-06-07T02:56:37.829Z,5.40
2019-06-07T02:58:41.155Z,5.60
2019-06-07T03:01:09.303Z,5.25
2019-06-07T03:03:39.427Z,5.33
2019-06-07T03:06:04.948Z,5.20
2019-06-07T03:08:35.418Z,5.12
2019-06-07T03:11:03.189Z,5.47
2019-06-07T03:13:37.175Z,5.08
2019-06-07T03:18:50.408Z,5.00
2019-06-07T03:21:28.166Z,5.30
2019-06-07T03:23:58.545Z,5.60
2019-06-07T03:26:27.604Z,5.10
2019-06-07T03:28:56.697Z,5.40
2019-06-07T03:31:28.519Z,5.28
2019-06-07T03:33:56.759Z,5.90
2019-06-07T03:36:25.981Z,5.42
2019-06-07T03:38:54.760Z,5.80
2019-06-07T03:41:23.164Z,5.22
2019-06-07T03:43:51.415Z,5.47
2019-06-07T03:46:19.680Z,5.22
2019-06-07T03:48:47.910Z,5.70
2019-06-07T03:51:24.573Z,6.00
2019-06-07T03:53:46.216Z,5.22
2019-06-07T03:56:14.964Z,5.35
2019-06-07T03:58:49.884Z,5.75
2019-06-07T04:01:14.014Z,6.10
2019-06-07T04:03:50.795Z,5.33
2019-06-07T04:06:12.245Z,6.03
2019-06-07T04:08:42.216Z,5.83
2019-06-07T04:11:10.488Z,6.10
2019-06-07T04:13:42.756Z,5.83
2019-06-07T04:16:08.722Z,5.95
2019-06-07T04:18:40.731Z,5.70
2019-06-07T04:21:06.982Z,5.08
2019-06-07T04:23:38.566Z,6.40
2019-06-07T04:26:05.260Z,5.37
2019-06-07T04:29:24.833Z,5.60
2019-06-07T04:31:03.479Z,5.10
2019-06-07T04:33:34.076Z,4.80
2019-06-07T04:36:01.704Z,5.20
2019-06-07T04:38:31.984Z,5.47
2019-06-07T04:40:59.942Z,5.50
2019-06-07T04:43:30.231Z,5.20
2019-06-07T04:45:58.204Z,5.17
2019-06-07T04:48:26.469Z,5.47
2019-06-07T04:50:54.911Z,5.80
2019-06-07T04:53:23.175Z,6.00
2019-06-07T04:55:51.420Z,5.87
2019-06-07T04:58:19.778Z,5.67
2019-06-07T05:00:54.125Z,5.60
2019-06-07T05:03:18.027Z,6.25
2019-06-07T05:05:46.298Z,5.97
2019-06-07T05:08:27.544Z,6.05
2019-06-07T05:10:44.588Z,6.17
2019-06-07T05:13:12.854Z,6.78
2019-06-07T05:15:42.380Z,6.22
2019-06-07T05:18:11.751Z,6.70
2019-06-07T05:20:43.505Z,7.10
2019-06-07T05:23:09.997Z,6.20
2019-06-07T05:25:41.849Z,7.10
2019-06-07T05:28:08.249Z,7.00
2019-06-07T05:33:09.229Z,8.43
2019-06-07T05:35:41.348Z,8.70
2019-06-07T05:38:08.026Z,8.15
2019-06-07T05:40:41.953Z,7.35
2019-06-07T05:43:08.398Z,7.75
2019-06-07T05:45:42.290Z,7.92
2019-06-07T05:48:07.450Z,8.30
2019-06-07T05:50:44.944Z,8.30
2019-06-07T05:53:06.282Z,8.03
2019-06-07T05:55:35.214Z,8.03
2019-06-07T05:58:03.705Z,7.75
2019-06-07T06:00:34.592Z,8.55
2019-06-07T06:03:05.767Z,8.05
2019-06-07T06:05:36.517Z,7.20
2019-06-07T06:08:02.102Z,7.62
2019-06-07T06:10:30.379Z,8.48
2019-06-07T06:12:58.651Z,8.23
2019-06-07T06:15:41.705Z,7.70
2019-06-07T06:17:57.041Z,8.30
2019-06-07T06:20:32.860Z,8.35
2019-06-07T06:22:55.335Z,7.92
2019-06-07T06:25:33.470Z,8.28
2019-06-07T06:28:10.083Z,8.75
2019-06-07T06:30:23.652Z,8.13
2019-06-07T06:32:57.736Z,7.97
2019-06-07T06:35:21.862Z,8.38
2019-06-07T06:37:53.210Z,7.75
2019-06-07T06:40:20.555Z,8.03
2019-06-07T06:42:50.545Z,8.35
2019-06-07T06:45:19.011Z,7.62
2019-06-07T06:47:50.306Z,8.18
2019-06-07T06:50:17.234Z,7.35
2019-06-07T06:52:48.513Z,6.85
2019-06-07T06:55:15.472Z,7.97
2019-06-07T06:57:43.726Z,7.40
2019-06-07T07:00:14.337Z,7.33
2019-06-07T07:03:35.128Z,6.72
2019-06-07T07:05:12.615Z,6.92
2019-06-07T07:07:40.885Z,6.17
2019-06-07T07:10:09.222Z,7.55
2019-06-07T07:12:37.473Z,5.85
2019-06-07T07:15:07.436Z,6.70
2019-06-07T07:17:50.472Z,6.37
2019-06-07T07:20:06.671Z,6.20
2019-06-07T07:22:34.946Z,6.67
2019-06-07T07:25:04.142Z,6.50
2019-06-07T07:27:32.413Z,5.78
2019-06-07T07:30:34.691Z,6.00
2019-06-07T07:32:30.672Z,7.42
2019-06-07T07:35:00.703Z,6.95
2019-06-07T07:37:28.938Z,6.30
2019-06-07T07:40:09.675Z,6.33
2019-06-07T07:42:27.349Z,6.80
2019-06-07T07:44:56.812Z,6.12
2019-06-07T07:47:25.217Z,6.05
2019-06-07T07:49:58.554Z,5.45
2019-06-07T07:52:23.510Z,5.67
2019-06-07T07:54:52.833Z,6.45
2019-06-07T07:57:21.744Z,5.60
2019-06-07T08:00:06.195Z,5.33
2019-06-07T08:02:19.976Z,5.50
2019-06-07T08:07:18.281Z,5.20
2019-06-07T08:09:47.544Z,6.03
2019-06-07T08:12:16.509Z,5.78
2019-06-07T08:14:44.789Z,5.22
2019-06-07T08:17:13.029Z,6.20
2019-06-07T08:19:41.272Z,6.30
2019-06-07T08:22:09.540Z,5.92
2019-06-07T08:24:38.073Z,5.83
2019-06-07T08:27:25.408Z,5.42
2019-06-07T08:29:44.946Z,5.78
2019-06-07T08:32:06.460Z,6.12
2019-06-07T08:34:34.709Z,5.47
2019-06-07T08:37:02.963Z,5.45
2019-06-07T08:39:31.198Z,5.80
2019-06-07T08:42:14.843Z,6.58
2019-06-07T08:44:29.440Z,5.25
2019-06-07T08:47:16.681Z,5.65
2019-06-07T08:49:27.681Z,5.70
2019-06-07T08:52:03.079Z,6.05
2019-06-07T08:54:26.002Z,5.95
2019-06-07T08:57:06.531Z,4.95
2019-06-07T08:59:24.252Z,6.47
2019-06-07T09:01:57.805Z,6.37
2019-06-07T09:04:22.475Z,5.47
2019-06-07T09:09:20.718Z,6.40
2019-06-07T09:11:48.976Z,6.47
2019-06-07T09:14:17.237Z,5.87
2019-06-07T09:16:45.489Z,6.03
2019-06-07T09:19:13.749Z,6.40
2019-06-07T09:21:42.021Z,6.28
2019-06-07T09:24:11.800Z,6.47
2019-06-07T09:26:40.249Z,5.70
2019-06-07T09:29:11.620Z,5.87
2019-06-07T09:31:51.839Z,7.12
2019-06-07T09:34:13.945Z,6.92
2019-06-07T09:36:38.455Z,5.90
2019-06-07T09:39:10.093Z,6.33
2019-06-07T09:41:47.766Z,5.55
2019-06-07T09:44:23.169Z,6.12
2019-06-07T09:46:37.031Z,5.60
2019-06-07T09:49:21.094Z,7.30
2019-06-07T09:51:35.222Z,7.65
2019-06-07T09:54:08.144Z,6.47
2019-06-07T09:56:33.502Z,5.72
2019-06-07T09:59:03.734Z,5.03
2019-06-07T10:01:31.792Z,5.78
2019-06-07T10:04:04.647Z,5.92
2019-06-07T10:06:30.032Z,5.95
2019-06-07T10:10:08.245Z,5.75
2019-06-07T10:11:28.367Z,6.05
2019-06-07T10:13:56.604Z,5.33
2019-06-07T10:16:24.869Z,5.78
2019-06-07T10:18:53.118Z,6.25
2019-06-07T10:21:21.352Z,5.87
2019-06-07T10:23:49.681Z,5.85
2019-06-07T10:26:17.951Z,5.50
2019-06-07T10:28:46.198Z,5.50
2019-06-07T10:31:14.432Z,5.37
2019-06-07T10:33:42.688Z,5.37
2019-06-07T10:36:10.947Z,4.87
2019-06-07T10:38:39.198Z,4.97
2019-06-07T10:41:07.464Z,5.30
2019-06-07T10:43:35.741Z,4.95
2019-06-07T10:46:05.559Z,5.40
2019-06-07T10:48:34.111Z,4.78
2019-06-07T10:51:02.361Z,4.45
2019-06-07T10:53:30.613Z,4.62
2019-06-07T10:55:58.850Z,5.03
2019-06-07T10:58:27.111Z,4.70
2019-06-07T11:00:55.422Z,5.40
2019-06-07T11:03:23.714Z,5.10
2019-06-07T11:05:51.961Z,4.72
2019-06-07T11:08:20.219Z,4.55
2019-06-07T11:10:48.504Z,5.30
2019-06-07T11:13:16.757Z,5.05
2019-06-07T11:15:45.057Z,5.15
2019-06-07T11:18:14.399Z,4.65
2019-06-07T11:20:42.909Z,5.00
2019-06-07T11:23:12.267Z,4.62
2019-06-07T11:25:40.693Z,4.92
2019-06-07T11:28:10.406Z,4.80
2019-06-07T11:30:38.899Z,4.60
2019-06-07T11:33:08.405Z,4.55
2019-06-07T11:35:36.850Z,4.95
2019-06-07T11:38:06.284Z,4.55
2019-06-07T11:40:36.077Z,4.37
2019-06-07T11:43:04.584Z,4.58
2019-06-07T11:45:32.828Z,5.08
2019-06-07T11:48:01.101Z,4.30
2019-06-07T11:50:29.373Z,4.42
2019-06-07T11:52:57.642Z,4.65
2019-06-07T11:55:25.908Z,4.25
2019-06-07T11:57:54.142Z,4.35
2019-06-07T12:00:22.408Z,4.53
2019-06-07T12:02:50.671Z,4.58
2019-06-07T12:05:20.416Z,4.67
2019-06-07T12:07:49.026Z,4.15
2019-06-07T12:10:22.289Z,4.25
2019-06-07T12:12:47.260Z,5.22
2019-06-07T12:15:16.951Z,4.40
2019-06-07T12:17:45.554Z,4.40
2019-06-07T12:20:15.298Z,4.17
2019-06-07T12:22:43.798Z,4.55
2019-06-07T12:25:17.807Z,4.50
2019-06-07T12:27:42.526Z,4.40
2019-06-07T12:30:19.506Z,4.40
2019-06-07T12:32:40.841Z,4.80
2019-06-07T12:35:09.757Z,4.90
2019-06-07T12:37:44.394Z,4.50
2019-06-07T12:40:08.419Z,4.70
2019-06-07T12:42:36.968Z,4.62
2019-06-07T12:45:06.834Z,4.17
2019-06-07T12:47:35.081Z,4.75
2019-06-07T12:50:05.647Z,4.72
2019-06-07T12:52:33.918Z,4.28
2019-06-07T12:55:02.182Z,4.30
2019-06-07T12:57:30.454Z,4.15
2019-06-07T12:59:58.764Z,4.20
2019-06-07T13:02:27.026Z,4.87
2019-06-07T13:04:55.312Z,4.62
2019-06-07T13:07:24.291Z,4.15
2019-06-07T13:09:52.624Z,4.53
2019-06-07T13:12:21.760Z,4.35
2019-06-07T13:14:50.141Z,4.35
2019-06-07T13:17:18.762Z,4.55
2019-06-07T13:19:48.362Z,4.00
2019-06-07T13:22:18.181Z,4.45
2019-06-07T13:24:46.815Z,4.45
2019-06-07T13:27:16.141Z,4.30
2019-06-07T13:29:44.598Z,4.10
2019-06-07T13:32:12.864Z,4.20
2019-06-07T13:34:47.055Z,4.50
2019-06-07T13:37:15.346Z,4.50
2019-06-07T13:39:43.667Z,4.30
2019-06-07T13:42:11.910Z,4.25
2019-06-07T13:44:40.163Z,4.33
2019-06-07T13:47:08.413Z,4.42
2019-06-07T13:49:36.666Z,4.30
2019-06-07T13:52:05.698Z,4.70
2019-06-07T13:54:34.214Z,4.75
2019-06-07T13:57:03.235Z,4.85
2019-06-07T13:59:31.700Z,4.67
2019-06-07T14:01:59.943Z,4.35
2019-06-07T14:04:29.135Z,4.90
2019-06-07T14:06:57.530Z,6.67
2019-06-07T14:09:25.868Z,6.40
2019-06-07T14:11:54.133Z,4.62
2019-06-07T14:14:24.558Z,4.85
2019-06-07T14:16:52.422Z,4.50
2019-06-07T14:19:20.691Z,4.42
2019-06-07T14:21:48.935Z,4.55
2019-06-07T14:24:17.182Z,4.62
2019-06-07T14:26:47.078Z,4.50
2019-06-07T14:29:15.332Z,4.95
2019-06-07T14:31:43.582Z,4.35
2019-06-07T14:34:11.866Z,4.53
2019-06-07T14:36:40.086Z,5.60
2019-06-07T14:39:08.351Z,3.98
2019-06-07T14:41:36.612Z,4.75
2019-06-07T14:44:04.957Z,7.42
2019-06-07T14:46:34.402Z,4.80
2019-06-07T14:49:03.072Z,4.12
2019-06-07T14:51:33.380Z,4.25
2019-06-07T14:54:01.485Z,4.40
2019-06-07T14:56:31.228Z,4.30
2019-06-07T14:58:59.706Z,4.28
2019-06-07T15:01:28.471Z,4.12
2019-06-07T15:03:56.887Z,3.83
2019-06-07T15:06:26.695Z,4.20
2019-06-07T15:08:55.207Z,4.62
2019-06-07T15:11:23.457Z,4.30
2019-06-07T15:13:51.888Z,4.08
2019-06-07T15:16:20.143Z,4.40
2019-06-07T15:18:48.453Z,4.58
2019-06-07T15:21:16.720Z,4.72
2019-06-07T15:23:44.946Z,4.37
2019-06-07T15:26:13.201Z,4.25
2019-06-07T15:28:41.482Z,4.22
2019-06-07T15:31:09.818Z,4.25
2019-06-07T15:33:38.369Z,4.25
2019-06-07T15:36:06.818Z,4.40
2019-06-07T15:38:35.049Z,4.15
2019-06-07T15:41:03.326Z,4.30
2019-06-07T15:43:31.571Z,4.30
2019-06-07T15:45:59.828Z,4.00
2019-06-07T15:48:28.063Z,4.17
2019-06-07T15:50:56.342Z,4.60
2019-06-07T15:53:24.658Z,4.47
2019-06-07T15:55:52.903Z,4.75
2019-06-07T15:58:21.312Z,4.97
2019-06-07T16:00:50.217Z,5.03
2019-06-07T16:03:18.654Z,5.00
2019-06-07T16:05:46.889Z,5.40
2019-06-07T16:08:15.437Z,5.08
2019-06-07T16:10:43.873Z,5.50
2019-06-07T16:13:12.121Z,5.00
2019-06-07T16:15:41.406Z,5.40
2019-06-07T16:18:09.898Z,5.40
2019-06-07T16:20:39.435Z,5.53
2019-06-07T16:23:07.956Z,4.95
2019-06-07T16:25:36.211Z,5.12
2019-06-07T16:28:04.607Z,5.40
2019-06-07T16:30:32.904Z,5.20
2019-06-07T16:33:01.147Z,4.67
2019-06-07T16:35:29.407Z,4.83
2019-06-07T16:37:57.660Z,5.05
2019-06-07T16:40:25.907Z,5.35
2019-06-07T16:42:54.167Z,4.87
2019-06-07T16:45:22.418Z,4.55
2019-06-07T16:47:50.689Z,4.60
2019-06-07T16:50:18.991Z,4.78
2019-06-07T16:52:48.615Z,5.28
2019-06-07T16:55:17.182Z,5.00
2019-06-07T16:57:45.436Z,5.42
2019-06-07T17:00:14.193Z,5.50
2019-06-07T17:02:42.460Z,4.70
2019-06-07T17:05:10.764Z,4.80
2019-06-07T17:07:40.318Z,4.78
2019-06-07T17:10:11.653Z,5.08
2019-06-07T17:12:40.652Z,4.90
2019-06-07T17:15:10.367Z,5.10
2019-06-07T17:17:38.851Z,4.97
2019-06-07T17:20:07.641Z,5.03
2019-06-07T17:22:35.962Z,4.78
2019-06-07T17:25:05.848Z,5.10
2019-06-07T17:27:34.102Z,4.62
2019-06-07T17:30:02.433Z,5.10
2019-06-07T17:32:30.706Z,5.20
2019-06-07T17:34:59.008Z,5.10
2019-06-07T17:37:27.247Z,5.40
2019-06-07T17:39:55.498Z,4.92
2019-06-07T17:42:23.751Z,5.37
2019-06-07T17:44:52.026Z,5.42
2019-06-07T17:47:20.264Z,9.40
2019-06-07T17:49:50.053Z,6.10
2019-06-07T17:52:18.348Z,5.80
2019-06-07T17:54:47.927Z,5.60
2019-06-07T17:57:16.516Z,5.30
2019-06-07T17:59:44.788Z,5.50
2019-06-07T18:02:15.365Z,5.55
2019-06-07T18:04:43.176Z,5.80
2019-06-07T18:07:11.535Z,5.62
2019-06-07T18:09:39.780Z,5.65
2019-06-07T18:12:08.022Z,5.67
2019-06-07T18:14:36.357Z,5.50
2019-06-07T18:17:04.620Z,5.40
2019-06-07T18:19:32.933Z,5.78
2019-06-07T18:22:01.242Z,5.55
2019-06-07T18:24:29.502Z,5.53
2019-06-07T18:26:58.917Z,5.30
2019-06-07T18:29:27.337Z,6.45
2019-06-07T18:31:55.585Z,6.87
2019-06-07T18:34:23.851Z,6.40
2019-06-07T18:36:53.121Z,5.90
2019-06-07T18:39:21.411Z,5.67
2019-06-07T18:41:49.672Z,6.20
2019-06-07T18:44:21.651Z,6.50
2019-06-07T18:46:48.182Z,5.90
2019-06-07T18:49:16.466Z,6.10
2019-06-07T18:51:47.409Z,5.72
2019-06-07T18:54:16.061Z,6.05
2019-06-07T18:56:44.339Z,6.65
2019-06-07T18:59:12.581Z,7.70
2019-06-07T19:01:40.838Z,6.80
2019-06-07T19:04:09.179Z,6.97
2019-06-07T19:06:37.507Z,15.35
2019-06-07T19:09:06.656Z,33.28
2019-06-07T19:11:35.398Z,22.52
2019-06-07T19:14:03.896Z,13.35
2019-06-07T19:16:32.173Z,10.18
2019-06-07T19:19:00.449Z,7.85
2019-06-07T19:21:32.088Z,7.67
2019-06-07T19:23:58.690Z,7.12
2019-06-07T19:26:26.946Z,7.10
2019-06-07T19:28:55.186Z,8.98
2019-06-07T19:31:23.435Z,13.95
2019-06-07T19:33:53.031Z,51.25
2019-06-07T19:36:21.446Z,23.85
2019-06-07T19:38:49.707Z,8.58
2019-06-07T19:41:20.002Z,7.80
2019-06-07T19:43:47.938Z,8.88
2019-06-07T19:46:16.172Z,8.00
2019-06-07T19:48:44.434Z,7.87
2019-06-07T19:51:12.689Z,9.60
2019-06-07T19:53:40.983Z,10.23
2019-06-07T19:56:09.246Z,10.85
2019-06-07T19:58:37.495Z,10.18
2019-06-07T20:01:05.784Z,9.33
2019-06-07T20:03:34.011Z,10.15
2019-06-07T20:06:02.435Z,10.72
2019-06-07T20:08:30.746Z,10.00
2019-06-07T20:10:59.050Z,9.53
2019-06-07T20:13:27.321Z,9.70
2019-06-07T20:15:56.776Z,13.80
2019-06-07T20:18:27.836Z,8.95
2019-06-07T20:20:56.390Z,8.35
2019-06-07T20:23:24.805Z,8.73
2019-06-07T20:25:53.030Z,8.58
2019-06-07T20:28:21.291Z,7.60
2019-06-07T20:30:52.193Z,7.47
2019-06-07T20:33:19.541Z,12.37
2019-06-07T20:35:47.780Z,7.28
2019-06-07T20:38:16.020Z,7.25
2019-06-07T20:40:44.298Z,6.05
2019-06-07T20:43:12.555Z,7.17
2019-06-07T20:45:40.804Z,6.50
2019-06-07T20:48:09.065Z,6.17
2019-06-07T20:50:37.304Z,6.28
2019-06-07T20:53:09.216Z,5.92
2019-06-07T20:55:37.612Z,5.53
2019-06-07T20:58:07.129Z,6.08
2019-06-07T21:00:35.655Z,5.78
2019-06-07T21:03:05.165Z,5.15
2019-06-07T21:05:33.816Z,4.90
2019-06-07T21:08:02.404Z,5.22
2019-06-07T21:10:32.232Z,5.87
2019-06-07T21:13:01.627Z,5.50
2019-06-07T21:15:30.235Z,4.75
2019-06-07T21:18:00.302Z,4.85
2019-06-07T21:20:28.547Z,4.40
2019-06-07T21:22:56.795Z,4.42
2019-06-07T21:25:25.314Z,4.15
2019-06-07T21:27:53.557Z,4.03
2019-06-07T21:30:21.836Z,3.85
2019-06-07T21:32:50.090Z,4.10
2019-06-07T21:35:18.342Z,3.25
2019-06-07T21:37:46.633Z,3.42
2019-06-07T21:40:14.926Z,2.95
2019-06-07T21:42:43.378Z,2.72
2019-06-07T21:45:11.991Z,2.45
2019-06-07T21:47:40.647Z,2.40
2019-06-07T21:50:08.975Z,2.47
2019-06-07T21:52:37.379Z,2.67
2019-06-07T21:55:07.277Z,2.77
2019-06-07T21:57:36.236Z,2.60
2019-06-07T22:00:09.230Z,2.15
2019-06-07T22:02:37.629Z,2.10
2019-06-07T22:05:07.424Z,1.67
2019-06-07T22:07:35.767Z,2.00
2019-06-07T22:10:05.928Z,1.80
2019-06-07T22:12:34.300Z,1.40
2019-06-07T22:15:04.920Z,1.50
2019-06-07T22:17:32.625Z,1.60
2019-06-07T22:20:00.858Z,1.60
2019-06-07T22:22:29.129Z,1.70
2019-06-07T22:24:57.398Z,1.80
2019-06-07T22:27:25.719Z,1.50
2019-06-07T22:29:53.972Z,1.40
2019-06-07T22:32:22.212Z,1.45
2019-06-07T22:34:50.541Z,1.40
2019-06-07T22:37:23.294Z,1.47
2019-06-07T22:39:48.783Z,1.40
2019-06-07T22:42:17.014Z,1.35
2019-06-07T22:44:45.273Z,1.20
2019-06-07T22:47:14.056Z,1.10
2019-06-07T22:49:42.439Z,1.35
2019-06-07T22:52:13.442Z,1.32
2019-06-07T22:54:40.727Z,1.50
2019-06-07T22:57:11.886Z,1.17
2019-06-07T22:59:40.338Z,1.45
2019-06-07T23:02:08.584Z,1.30
2019-06-07T23:04:36.824Z,1.30
2019-06-07T23:07:05.152Z,1.30
2019-06-07T23:09:33.386Z,1.17
2019-06-07T23:12:01.641Z,1.05
2019-06-07T23:14:29.885Z,1.10
2019-06-07T23:16:58.191Z,1.10
2019-06-07T23:19:26.479Z,1.22
2019-06-07T23:21:54.708Z,1.20
2019-06-07T23:24:22.958Z,1.20
2019-06-07T23:26:51.205Z,1.10
2019-06-07T23:29:20.641Z,1.20
2019-06-07T23:31:49.114Z,1.20
2019-06-07T23:34:17.366Z,1.20
2019-06-07T23:36:45.620Z,1.25
2019-06-07T23:39:15.307Z,1.37
2019-06-07T23:41:43.721Z,1.40
2019-06-07T23:44:13.222Z,1.20
2019-06-07T23:46:41.702Z,1.20
2019-06-07T23:49:11.783Z,1.20
2019-06-07T23:51:40.002Z,1.30
2019-06-07T23:54:08.257Z,1.27
2019-06-07T23:56:36.534Z,1.65
2019-06-07T23:59:04.822Z,1.32
